sensor_id;sensor_type;location;lat;lon;timestamp;temperature;humidity
11005;DHT22;5555;59.622;16.556;2023-03-31T00:02:02;-0.80;99.90
11005;DHT22;5555;59.622;16.556;2023-03-31T00:04:32;-0.90;99.90
11005;DHT22;5555;59.622;16.556;2023-03-31T00:06:57;-0.90;99.90
11005;DHT22;5555;59.622;16.556;2023-03-31T00:09:24;-0.90;99.90
11005;DHT22;5555;59.622;16.556;2023-03-31T00:11:50;-0.90;99.90
11005;DHT22;5555;59.622;16.556;2023-03-31T00:14:17;-0.90;99.90
11005;DHT22;5555;59.622;16.556;2023-03-31T00:16:45;-0.90;99.90
11005;DHT22;5555;59.622;16.556;2023-03-31T00:19:12;-0.90;99.90
11005;DHT22;5555;59.622;16.556;2023-03-31T00:21:44;-0.90;99.90
11005;DHT22;5555;59.622;16.556;2023-03-31T00:24:10;-0.90;99.90
11005;DHT22;5555;59.622;16.556;2023-03-31T00:26:37;-0.90;99.90
11005;DHT22;5555;59.622;16.556;2023-03-31T00:29:04;-0.90;99.90
11005;DHT22;5555;59.622;16.556;2023-03-31T00:31:31;-0.90;99.90
11005;DHT22;5555;59.622;16.556;2023-03-31T00:33:56;-0.90;99.90
11005;DHT22;5555;59.622;16.556;2023-03-31T00:36:23;-0.90;99.90
11005;DHT22;5555;59.622;16.556;2023-03-31T00:38:57;-0.90;99.90
11005;DHT22;5555;59.622;16.556;2023-03-31T00:41:42;-0.90;99.90
11005;DHT22;5555;59.622;16.556;2023-03-31T00:44:20;-0.90;99.90
11005;DHT22;5555;59.622;16.556;2023-03-31T00:50:12;-0.90;99.90
11005;DHT22;5555;59.622;16.556;2023-03-31T00:52:31;-0.90;99.90
11005;DHT22;5555;59.622;16.556;2023-03-31T00:55:13;-0.90;99.90
11005;DHT22;5555;59.622;16.556;2023-03-31T00:57:42;-0.80;99.90
11005;DHT22;5555;59.622;16.556;2023-03-31T01:00:13;-0.90;99.90
11005;DHT22;5555;59.622;16.556;2023-03-31T01:02:47;-0.90;99.90
11005;DHT22;5555;59.622;16.556;2023-03-31T01:05:26;-0.90;99.90
11005;DHT22;5555;59.622;16.556;2023-03-31T01:07:54;-0.90;99.90
11005;DHT22;5555;59.622;16.556;2023-03-31T01:10:21;-0.90;99.90
11005;DHT22;5555;59.622;16.556;2023-03-31T01:12:49;-1.00;99.90
11005;DHT22;5555;59.622;16.556;2023-03-31T01:15:16;-0.90;99.90
11005;DHT22;5555;59.622;16.556;2023-03-31T01:17:43;-1.00;99.90
11005;DHT22;5555;59.622;16.556;2023-03-31T01:20:31;-0.90;99.90
11005;DHT22;5555;59.622;16.556;2023-03-31T01:29:19;-1.00;99.90
11005;DHT22;5555;59.622;16.556;2023-03-31T01:32:26;-1.00;99.90
11005;DHT22;5555;59.622;16.556;2023-03-31T01:40:41;-1.00;99.90
11005;DHT22;5555;59.622;16.556;2023-03-31T01:43:23;-1.00;99.90
11005;DHT22;5555;59.622;16.556;2023-03-31T01:45:56;-1.00;99.90
11005;DHT22;5555;59.622;16.556;2023-03-31T01:51:15;-1.00;99.90
11005;DHT22;5555;59.622;16.556;2023-03-31T01:53:57;-1.10;99.90
11005;DHT22;5555;59.622;16.556;2023-03-31T01:56:31;-1.10;99.90
11005;DHT22;5555;59.622;16.556;2023-03-31T02:06:44;-1.10;99.90
11005;DHT22;5555;59.622;16.556;2023-03-31T02:09:24;-1.10;99.90
11005;DHT22;5555;59.622;16.556;2023-03-31T02:11:52;-1.10;99.90
11005;DHT22;5555;59.622;16.556;2023-03-31T02:14:24;-1.20;99.90
11005;DHT22;5555;59.622;16.556;2023-03-31T02:16:55;-1.20;99.90
11005;DHT22;5555;59.622;16.556;2023-03-31T02:19:25;-1.10;99.90
11005;DHT22;5555;59.622;16.556;2023-03-31T02:21:52;-1.20;99.90
11005;DHT22;5555;59.622;16.556;2023-03-31T02:24:22;-1.20;99.90
11005;DHT22;5555;59.622;16.556;2023-03-31T02:29:29;-1.20;99.90
11005;DHT22;5555;59.622;16.556;2023-03-31T02:32:16;-1.20;99.90
11005;DHT22;5555;59.622;16.556;2023-03-31T02:34:44;-1.20;99.90
11005;DHT22;5555;59.622;16.556;2023-03-31T02:37:10;-1.30;99.90
11005;DHT22;5555;59.622;16.556;2023-03-31T02:39:38;-1.20;99.90
11005;DHT22;5555;59.622;16.556;2023-03-31T02:42:05;-1.20;99.90
11005;DHT22;5555;59.622;16.556;2023-03-31T02:44:35;-1.20;99.90
11005;DHT22;5555;59.622;16.556;2023-03-31T02:47:11;-1.20;99.90
11005;DHT22;5555;59.622;16.556;2023-03-31T02:49:40;-1.20;99.90
11005;DHT22;5555;59.622;16.556;2023-03-31T02:52:36;-1.20;99.90
11005;DHT22;5555;59.622;16.556;2023-03-31T03:00:41;-1.20;99.90
11005;DHT22;5555;59.622;16.556;2023-03-31T03:16:18;-1.30;99.90
11005;DHT22;5555;59.622;16.556;2023-03-31T03:19:04;-1.30;99.90
11005;DHT22;5555;59.622;16.556;2023-03-31T03:21:31;-1.30;99.90
11005;DHT22;5555;59.622;16.556;2023-03-31T03:23:57;-1.30;99.90
11005;DHT22;5555;59.622;16.556;2023-03-31T03:26:24;-1.30;99.90
11005;DHT22;5555;59.622;16.556;2023-03-31T03:28:53;-1.40;99.90
11005;DHT22;5555;59.622;16.556;2023-03-31T03:31:20;-1.40;99.90
11005;DHT22;5555;59.622;16.556;2023-03-31T03:33:49;-1.40;99.90
11005;DHT22;5555;59.622;16.556;2023-03-31T03:36:14;-1.40;99.90
11005;DHT22;5555;59.622;16.556;2023-03-31T03:38:40;-1.40;99.90
11005;DHT22;5555;59.622;16.556;2023-03-31T03:41:06;-1.40;99.90
11005;DHT22;5555;59.622;16.556;2023-03-31T03:43:32;-1.40;99.90
11005;DHT22;5555;59.622;16.556;2023-03-31T03:45:58;-1.40;99.90
11005;DHT22;5555;59.622;16.556;2023-03-31T03:48:24;-1.40;99.90
11005;DHT22;5555;59.622;16.556;2023-03-31T03:50:50;-1.40;99.90
11005;DHT22;5555;59.622;16.556;2023-03-31T03:53:18;-1.40;99.90
11005;DHT22;5555;59.622;16.556;2023-03-31T03:55:44;-1.40;99.90
11005;DHT22;5555;59.622;16.556;2023-03-31T03:58:10;-1.50;99.90
11005;DHT22;5555;59.622;16.556;2023-03-31T04:00:36;-1.50;99.90
11005;DHT22;5555;59.622;16.556;2023-03-31T04:03:01;-1.40;99.90
11005;DHT22;5555;59.622;16.556;2023-03-31T04:05:27;-1.40;99.90
11005;DHT22;5555;59.622;16.556;2023-03-31T04:07:52;-1.50;99.90
11005;DHT22;5555;59.622;16.556;2023-03-31T04:10:18;-1.50;99.90
11005;DHT22;5555;59.622;16.556;2023-03-31T04:12:43;-1.50;99.90
11005;DHT22;5555;59.622;16.556;2023-03-31T04:15:09;-1.50;99.90
11005;DHT22;5555;59.622;16.556;2023-03-31T04:17:35;-1.40;99.90
11005;DHT22;5555;59.622;16.556;2023-03-31T04:20:04;-1.50;99.90
11005;DHT22;5555;59.622;16.556;2023-03-31T04:22:32;-1.50;99.90
11005;DHT22;5555;59.622;16.556;2023-03-31T04:25:06;-1.50;99.90
11005;DHT22;5555;59.622;16.556;2023-03-31T04:27:39;-1.50;99.90
11005;DHT22;5555;59.622;16.556;2023-03-31T04:30:12;-1.50;99.90
11005;DHT22;5555;59.622;16.556;2023-03-31T04:32:38;-1.50;99.90
11005;DHT22;5555;59.622;16.556;2023-03-31T04:35:04;-1.60;99.90
11005;DHT22;5555;59.622;16.556;2023-03-31T04:37:31;-1.60;99.90
11005;DHT22;5555;59.622;16.556;2023-03-31T04:40:00;-1.60;99.90
11005;DHT22;5555;59.622;16.556;2023-03-31T04:42:33;-1.60;99.90
11005;DHT22;5555;59.622;16.556;2023-03-31T04:44:59;-1.60;99.90
11005;DHT22;5555;59.622;16.556;2023-03-31T04:47:25;-1.70;99.90
11005;DHT22;5555;59.622;16.556;2023-03-31T04:49:50;-1.70;99.90
11005;DHT22;5555;59.622;16.556;2023-03-31T04:52:16;-1.70;99.90
11005;DHT22;5555;59.622;16.556;2023-03-31T04:54:42;-1.80;99.90
11005;DHT22;5555;59.622;16.556;2023-03-31T04:57:07;-1.80;99.90
11005;DHT22;5555;59.622;16.556;2023-03-31T04:59:33;-1.80;99.90
11005;DHT22;5555;59.622;16.556;2023-03-31T05:01:58;-1.70;99.90
11005;DHT22;5555;59.622;16.556;2023-03-31T05:04:24;-1.90;99.90
11005;DHT22;5555;59.622;16.556;2023-03-31T05:06:49;-1.90;99.90
11005;DHT22;5555;59.622;16.556;2023-03-31T05:09:15;-2.00;99.90
11005;DHT22;5555;59.622;16.556;2023-03-31T05:11:41;-2.00;99.90
11005;DHT22;5555;59.622;16.556;2023-03-31T05:14:06;-2.00;99.90
11005;DHT22;5555;59.622;16.556;2023-03-31T05:16:32;-1.90;99.90
11005;DHT22;5555;59.622;16.556;2023-03-31T05:18:58;-1.90;99.90
11005;DHT22;5555;59.622;16.556;2023-03-31T05:21:24;-2.00;99.90
11005;DHT22;5555;59.622;16.556;2023-03-31T05:23:51;-2.00;99.90
11005;DHT22;5555;59.622;16.556;2023-03-31T05:26:17;-2.00;99.90
11005;DHT22;5555;59.622;16.556;2023-03-31T05:28:43;-2.00;99.90
11005;DHT22;5555;59.622;16.556;2023-03-31T05:31:09;-2.00;99.90
11005;DHT22;5555;59.622;16.556;2023-03-31T05:33:37;-1.90;99.90
11005;DHT22;5555;59.622;16.556;2023-03-31T05:36:08;-1.90;99.90
11005;DHT22;5555;59.622;16.556;2023-03-31T05:38:33;-1.90;99.90
11005;DHT22;5555;59.622;16.556;2023-03-31T05:41:00;-1.90;99.90
11005;DHT22;5555;59.622;16.556;2023-03-31T05:43:25;-1.90;99.90
11005;DHT22;5555;59.622;16.556;2023-03-31T05:45:51;-1.80;99.90
11005;DHT22;5555;59.622;16.556;2023-03-31T05:48:17;-2.00;99.90
11005;DHT22;5555;59.622;16.556;2023-03-31T05:50:42;-1.90;99.90
11005;DHT22;5555;59.622;16.556;2023-03-31T05:53:08;-1.90;99.90
11005;DHT22;5555;59.622;16.556;2023-03-31T05:55:35;-1.90;99.90
11005;DHT22;5555;59.622;16.556;2023-03-31T05:58:01;-1.90;99.90
11005;DHT22;5555;59.622;16.556;2023-03-31T06:00:26;-1.80;99.90
11005;DHT22;5555;59.622;16.556;2023-03-31T06:02:52;-1.60;99.90
11005;DHT22;5555;59.622;16.556;2023-03-31T06:05:17;-1.70;99.90
11005;DHT22;5555;59.622;16.556;2023-03-31T06:07:43;-1.60;99.90
11005;DHT22;5555;59.622;16.556;2023-03-31T06:10:09;-1.70;99.90
11005;DHT22;5555;59.622;16.556;2023-03-31T06:12:35;-1.70;99.90
11005;DHT22;5555;59.622;16.556;2023-03-31T06:15:01;-1.70;99.90
11005;DHT22;5555;59.622;16.556;2023-03-31T06:17:27;-1.70;99.90
11005;DHT22;5555;59.622;16.556;2023-03-31T06:19:52;-1.60;99.90
11005;DHT22;5555;59.622;16.556;2023-03-31T06:22:18;-1.40;99.90
11005;DHT22;5555;59.622;16.556;2023-03-31T06:24:44;-1.30;99.90
11005;DHT22;5555;59.622;16.556;2023-03-31T06:27:09;-1.30;99.90
11005;DHT22;5555;59.622;16.556;2023-03-31T06:29:35;-1.30;99.90
11005;DHT22;5555;59.622;16.556;2023-03-31T06:32:00;-1.40;99.90
11005;DHT22;5555;59.622;16.556;2023-03-31T06:34:26;-1.40;99.90
11005;DHT22;5555;59.622;16.556;2023-03-31T06:36:52;-1.40;99.90
11005;DHT22;5555;59.622;16.556;2023-03-31T06:39:18;-1.40;99.90
11005;DHT22;5555;59.622;16.556;2023-03-31T06:41:43;-1.40;99.90
11005;DHT22;5555;59.622;16.556;2023-03-31T06:44:09;-1.40;99.90
11005;DHT22;5555;59.622;16.556;2023-03-31T06:46:35;-1.40;99.90
11005;DHT22;5555;59.622;16.556;2023-03-31T06:49:01;-1.20;99.90
11005;DHT22;5555;59.622;16.556;2023-03-31T06:51:27;-1.00;99.90
11005;DHT22;5555;59.622;16.556;2023-03-31T06:53:52;-1.00;99.90
11005;DHT22;5555;59.622;16.556;2023-03-31T06:56:18;-1.00;99.90
11005;DHT22;5555;59.622;16.556;2023-03-31T06:58:44;-0.90;99.90
11005;DHT22;5555;59.622;16.556;2023-03-31T07:01:09;-0.90;99.90
11005;DHT22;5555;59.622;16.556;2023-03-31T07:03:35;-0.80;99.90
11005;DHT22;5555;59.622;16.556;2023-03-31T07:06:01;-0.70;99.90
11005;DHT22;5555;59.622;16.556;2023-03-31T07:08:27;-0.60;99.90
11005;DHT22;5555;59.622;16.556;2023-03-31T07:10:55;-0.40;99.90
11005;DHT22;5555;59.622;16.556;2023-03-31T07:13:22;-0.40;99.90
11005;DHT22;5555;59.622;16.556;2023-03-31T07:15:48;-0.30;99.90
11005;DHT22;5555;59.622;16.556;2023-03-31T07:18:15;-0.30;99.90
11005;DHT22;5555;59.622;16.556;2023-03-31T07:20:41;0.00;99.90
11005;DHT22;5555;59.622;16.556;2023-03-31T07:23:07;-0.40;99.90
11005;DHT22;5555;59.622;16.556;2023-03-31T07:25:34;-0.50;99.90
11005;DHT22;5555;59.622;16.556;2023-03-31T07:28:00;-0.60;99.90
11005;DHT22;5555;59.622;16.556;2023-03-31T07:30:26;-0.40;99.90
11005;DHT22;5555;59.622;16.556;2023-03-31T07:32:52;-0.40;99.90
11005;DHT22;5555;59.622;16.556;2023-03-31T07:35:19;-0.70;99.90
11005;DHT22;5555;59.622;16.556;2023-03-31T07:37:46;-0.60;99.90
11005;DHT22;5555;59.622;16.556;2023-03-31T07:40:15;-0.50;99.90
11005;DHT22;5555;59.622;16.556;2023-03-31T07:42:41;-0.10;99.90
11005;DHT22;5555;59.622;16.556;2023-03-31T07:45:08;0.10;99.90
11005;DHT22;5555;59.622;16.556;2023-03-31T07:47:35;0.20;99.90
11005;DHT22;5555;59.622;16.556;2023-03-31T07:50:00;0.30;99.90
11005;DHT22;5555;59.622;16.556;2023-03-31T07:52:26;0.10;99.90
11005;DHT22;5555;59.622;16.556;2023-03-31T07:54:52;0.00;99.90
11005;DHT22;5555;59.622;16.556;2023-03-31T07:57:18;0.30;99.90
11005;DHT22;5555;59.622;16.556;2023-03-31T07:59:46;0.60;99.90
11005;DHT22;5555;59.622;16.556;2023-03-31T08:02:14;0.70;99.90
11005;DHT22;5555;59.622;16.556;2023-03-31T08:04:40;0.60;99.90
11005;DHT22;5555;59.622;16.556;2023-03-31T08:07:08;0.50;99.90
11005;DHT22;5555;59.622;16.556;2023-03-31T08:09:34;0.40;99.90
11005;DHT22;5555;59.622;16.556;2023-03-31T08:11:59;0.70;99.90
11005;DHT22;5555;59.622;16.556;2023-03-31T08:14:25;0.70;99.90
11005;DHT22;5555;59.622;16.556;2023-03-31T08:16:50;0.60;99.90
11005;DHT22;5555;59.622;16.556;2023-03-31T08:19:17;0.80;99.90
11005;DHT22;5555;59.622;16.556;2023-03-31T08:21:43;0.80;99.90
11005;DHT22;5555;59.622;16.556;2023-03-31T08:24:09;0.60;99.90
11005;DHT22;5555;59.622;16.556;2023-03-31T08:26:34;1.00;99.90
11005;DHT22;5555;59.622;16.556;2023-03-31T08:29:00;1.20;99.90
11005;DHT22;5555;59.622;16.556;2023-03-31T08:31:25;1.40;99.90
11005;DHT22;5555;59.622;16.556;2023-03-31T08:33:53;1.00;99.90
11005;DHT22;5555;59.622;16.556;2023-03-31T08:36:23;0.70;99.90
11005;DHT22;5555;59.622;16.556;2023-03-31T08:38:52;0.20;99.90
11005;DHT22;5555;59.622;16.556;2023-03-31T08:44:34;0.10;99.90
11005;DHT22;5555;59.622;16.556;2023-03-31T08:47:04;0.30;99.90
11005;DHT22;5555;59.622;16.556;2023-03-31T08:49:41;0.20;99.90
11005;DHT22;5555;59.622;16.556;2023-03-31T08:52:13;0.40;99.90
11005;DHT22;5555;59.622;16.556;2023-03-31T08:54:46;0.80;99.90
11005;DHT22;5555;59.622;16.556;2023-03-31T09:00:14;1.80;99.90
11005;DHT22;5555;59.622;16.556;2023-03-31T09:08:05;0.60;99.90
11005;DHT22;5555;59.622;16.556;2023-03-31T09:10:52;0.10;99.90
11005;DHT22;5555;59.622;16.556;2023-03-31T09:16:23;0.30;99.90
11005;DHT22;5555;59.622;16.556;2023-03-31T09:18:52;0.40;99.90
11005;DHT22;5555;59.622;16.556;2023-03-31T09:26:26;0.70;99.90
11005;DHT22;5555;59.622;16.556;2023-03-31T09:28:55;0.80;99.90
11005;DHT22;5555;59.622;16.556;2023-03-31T09:31:22;1.20;99.90
11005;DHT22;5555;59.622;16.556;2023-03-31T09:33:51;1.00;99.90
11005;DHT22;5555;59.622;16.556;2023-03-31T09:36:19;1.50;99.90
11005;DHT22;5555;59.622;16.556;2023-03-31T09:38:47;1.70;99.90
11005;DHT22;5555;59.622;16.556;2023-03-31T09:41:14;1.80;99.90
11005;DHT22;5555;59.622;16.556;2023-03-31T09:43:41;1.70;99.90
11005;DHT22;5555;59.622;16.556;2023-03-31T09:49:01;1.80;99.90
11005;DHT22;5555;59.622;16.556;2023-03-31T09:51:33;1.90;99.90
11005;DHT22;5555;59.622;16.556;2023-03-31T09:54:12;1.70;99.90
11005;DHT22;5555;59.622;16.556;2023-03-31T09:59:16;2.40;99.90
11005;DHT22;5555;59.622;16.556;2023-03-31T10:01:44;2.70;99.90
11005;DHT22;5555;59.622;16.556;2023-03-31T10:04:23;2.80;99.90
11005;DHT22;5555;59.622;16.556;2023-03-31T10:06:50;2.80;99.90
11005;DHT22;5555;59.622;16.556;2023-03-31T10:09:20;2.40;99.90
11005;DHT22;5555;59.622;16.556;2023-03-31T10:11:57;2.30;99.90
11005;DHT22;5555;59.622;16.556;2023-03-31T10:14:25;2.50;99.90
11005;DHT22;5555;59.622;16.556;2023-03-31T10:16:54;2.90;99.90
11005;DHT22;5555;59.622;16.556;2023-03-31T10:19:26;3.10;99.90
11005;DHT22;5555;59.622;16.556;2023-03-31T10:22:37;3.30;99.90
11005;DHT22;5555;59.622;16.556;2023-03-31T10:25:22;4.00;99.90
11005;DHT22;5555;59.622;16.556;2023-03-31T10:27:53;4.20;99.90
11005;DHT22;5555;59.622;16.556;2023-03-31T10:30:25;3.20;99.90
11005;DHT22;5555;59.622;16.556;2023-03-31T10:32:53;3.10;99.90
11005;DHT22;5555;59.622;16.556;2023-03-31T10:37:50;2.60;99.90
11005;DHT22;5555;59.622;16.556;2023-03-31T10:40:22;3.30;99.90
11005;DHT22;5555;59.622;16.556;2023-03-31T10:43:01;3.10;99.90
11005;DHT22;5555;59.622;16.556;2023-03-31T10:45:30;2.80;99.90
11005;DHT22;5555;59.622;16.556;2023-03-31T10:47:59;3.30;99.90
11005;DHT22;5555;59.622;16.556;2023-03-31T10:50:31;3.30;99.90
11005;DHT22;5555;59.622;16.556;2023-03-31T10:53:12;3.00;99.90
11005;DHT22;5555;59.622;16.556;2023-03-31T11:01:22;3.30;99.90
11005;DHT22;5555;59.622;16.556;2023-03-31T11:04:35;3.40;99.90
11005;DHT22;5555;59.622;16.556;2023-03-31T11:07:27;3.00;99.90
11005;DHT22;5555;59.622;16.556;2023-03-31T11:13:03;2.90;99.90
11005;DHT22;5555;59.622;16.556;2023-03-31T11:15:38;3.50;99.90
11005;DHT22;5555;59.622;16.556;2023-03-31T11:21:04;3.20;99.40
11005;DHT22;5555;59.622;16.556;2023-03-31T11:29:24;4.00;98.60
11005;DHT22;5555;59.622;16.556;2023-03-31T11:35:10;4.30;99.90
11005;DHT22;5555;59.622;16.556;2023-03-31T11:38:07;3.90;98.80
11005;DHT22;5555;59.622;16.556;2023-03-31T11:41:02;4.20;99.60
11005;DHT22;5555;59.622;16.556;2023-03-31T11:46:17;4.20;98.80
11005;DHT22;5555;59.622;16.556;2023-03-31T11:48:56;4.00;99.70
11005;DHT22;5555;59.622;16.556;2023-03-31T11:51:56;4.70;99.60
11005;DHT22;5555;59.622;16.556;2023-03-31T11:54:30;5.90;98.60
11005;DHT22;5555;59.622;16.556;2023-03-31T11:57:01;6.10;96.80
11005;DHT22;5555;59.622;16.556;2023-03-31T11:59:31;5.10;97.00
11005;DHT22;5555;59.622;16.556;2023-03-31T12:04:38;5.20;98.20
11005;DHT22;5555;59.622;16.556;2023-03-31T12:10:17;5.90;98.30
11005;DHT22;5555;59.622;16.556;2023-03-31T12:13:34;5.10;95.90
11005;DHT22;5555;59.622;16.556;2023-03-31T12:21:22;4.20;96.00
11005;DHT22;5555;59.622;16.556;2023-03-31T12:23:49;5.00;96.60
11005;DHT22;5555;59.622;16.556;2023-03-31T12:31:45;6.30;95.70
11005;DHT22;5555;59.622;16.556;2023-03-31T12:34:13;6.50;94.10
11005;DHT22;5555;59.622;16.556;2023-03-31T12:39:21;5.50;94.50
11005;DHT22;5555;59.622;16.556;2023-03-31T12:45:15;6.30;92.70
11005;DHT22;5555;59.622;16.556;2023-03-31T12:48:14;7.60;93.80
11005;DHT22;5555;59.622;16.556;2023-03-31T12:55:57;6.80;92.60
11005;DHT22;5555;59.622;16.556;2023-03-31T13:01:09;8.30;93.50
11005;DHT22;5555;59.622;16.556;2023-03-31T13:11:47;7.50;89.30
11005;DHT22;5555;59.622;16.556;2023-03-31T13:14:22;7.50;90.20
11005;DHT22;5555;59.622;16.556;2023-03-31T13:16:49;9.00;87.50
11005;DHT22;5555;59.622;16.556;2023-03-31T13:19:34;8.40;85.00
11005;DHT22;5555;59.622;16.556;2023-03-31T13:22:02;7.70;85.30
11005;DHT22;5555;59.622;16.556;2023-03-31T13:24:29;7.40;87.50
11005;DHT22;5555;59.622;16.556;2023-03-31T13:26:57;8.10;87.00
11005;DHT22;5555;59.622;16.556;2023-03-31T13:29:41;8.00;86.70
11005;DHT22;5555;59.622;16.556;2023-03-31T13:32:24;7.80;90.10
11005;DHT22;5555;59.622;16.556;2023-03-31T13:35:14;8.40;87.30
11005;DHT22;5555;59.622;16.556;2023-03-31T13:38:01;9.00;86.20
11005;DHT22;5555;59.622;16.556;2023-03-31T13:51:58;7.40;82.90
11005;DHT22;5555;59.622;16.556;2023-03-31T13:54:59;7.90;81.60
11005;DHT22;5555;59.622;16.556;2023-03-31T13:57:54;9.30;80.00
11005;DHT22;5555;59.622;16.556;2023-03-31T14:11:26;7.90;76.10
11005;DHT22;5555;59.622;16.556;2023-03-31T14:14:12;7.90;80.70
11005;DHT22;5555;59.622;16.556;2023-03-31T14:16:43;8.10;79.60
11005;DHT22;5555;59.622;16.556;2023-03-31T14:19:30;7.90;79.20
11005;DHT22;5555;59.622;16.556;2023-03-31T14:35:56;8.10;73.90
11005;DHT22;5555;59.622;16.556;2023-03-31T14:38:27;8.20;75.80
11005;DHT22;5555;59.622;16.556;2023-03-31T14:40:54;8.50;74.00
11005;DHT22;5555;59.622;16.556;2023-03-31T14:43:25;7.30;72.60
11005;DHT22;5555;59.622;16.556;2023-03-31T14:46:07;7.00;74.80
11005;DHT22;5555;59.622;16.556;2023-03-31T14:48:45;7.70;75.10
11005;DHT22;5555;59.622;16.556;2023-03-31T14:51:14;7.90;75.00
11005;DHT22;5555;59.622;16.556;2023-03-31T14:53:41;7.90;74.50
11005;DHT22;5555;59.622;16.556;2023-03-31T14:56:38;7.80;74.60
11005;DHT22;5555;59.622;16.556;2023-03-31T14:59:06;8.50;74.10
11005;DHT22;5555;59.622;16.556;2023-03-31T15:01:35;8.60;75.80
11005;DHT22;5555;59.622;16.556;2023-03-31T15:04:11;8.60;74.60
11005;DHT22;5555;59.622;16.556;2023-03-31T15:06:39;7.70;73.70
11005;DHT22;5555;59.622;16.556;2023-03-31T15:09:08;7.80;74.50
11005;DHT22;5555;59.622;16.556;2023-03-31T15:11:37;8.60;73.40
11005;DHT22;5555;59.622;16.556;2023-03-31T15:14:03;8.20;74.00
11005;DHT22;5555;59.622;16.556;2023-03-31T15:16:33;8.60;74.40
11005;DHT22;5555;59.622;16.556;2023-03-31T15:19:16;9.20;73.80
11005;DHT22;5555;59.622;16.556;2023-03-31T15:21:44;8.10;74.20
11005;DHT22;5555;59.622;16.556;2023-03-31T15:24:13;7.40;75.10
11005;DHT22;5555;59.622;16.556;2023-03-31T15:29:19;7.40;74.10
11005;DHT22;5555;59.622;16.556;2023-03-31T15:31:46;6.50;73.80
11005;DHT22;5555;59.622;16.556;2023-03-31T15:34:30;6.60;75.90
11005;DHT22;5555;59.622;16.556;2023-03-31T15:36:57;6.80;76.80
11005;DHT22;5555;59.622;16.556;2023-03-31T15:39:26;7.70;75.90
11005;DHT22;5555;59.622;16.556;2023-03-31T15:41:53;7.40;75.00
11005;DHT22;5555;59.622;16.556;2023-03-31T15:47:28;8.00;74.50
11005;DHT22;5555;59.622;16.556;2023-03-31T15:50:11;8.60;74.60
11005;DHT22;5555;59.622;16.556;2023-03-31T15:52:46;8.50;74.50
11005;DHT22;5555;59.622;16.556;2023-03-31T15:55:27;8.80;74.40
11005;DHT22;5555;59.622;16.556;2023-03-31T15:57:56;8.30;73.50
11005;DHT22;5555;59.622;16.556;2023-03-31T16:00:50;7.40;74.60
11005;DHT22;5555;59.622;16.556;2023-03-31T16:03:27;8.20;75.70
11005;DHT22;5555;59.622;16.556;2023-03-31T16:05:55;7.80;73.30
11005;DHT22;5555;59.622;16.556;2023-03-31T16:08:37;8.00;74.10
11005;DHT22;5555;59.622;16.556;2023-03-31T16:11:10;8.00;73.70
11005;DHT22;5555;59.622;16.556;2023-03-31T16:13:38;7.40;75.10
11005;DHT22;5555;59.622;16.556;2023-03-31T16:16:08;7.50;75.10
11005;DHT22;5555;59.622;16.556;2023-03-31T16:18:41;7.40;75.30
11005;DHT22;5555;59.622;16.556;2023-03-31T16:21:08;7.70;74.70
11005;DHT22;5555;59.622;16.556;2023-03-31T16:23:36;8.10;73.60
11005;DHT22;5555;59.622;16.556;2023-03-31T16:26:08;8.10;75.10
11005;DHT22;5555;59.622;16.556;2023-03-31T16:28:35;7.00;75.20
11005;DHT22;5555;59.622;16.556;2023-03-31T16:31:02;7.30;75.30
11005;DHT22;5555;59.622;16.556;2023-03-31T16:33:30;8.00;75.20
11005;DHT22;5555;59.622;16.556;2023-03-31T16:36:15;8.30;74.00
11005;DHT22;5555;59.622;16.556;2023-03-31T16:38:42;8.10;74.10
11005;DHT22;5555;59.622;16.556;2023-03-31T16:41:07;6.90;74.10
11005;DHT22;5555;59.622;16.556;2023-03-31T16:43:33;5.50;75.00
11005;DHT22;5555;59.622;16.556;2023-03-31T16:46:01;6.10;77.10
11005;DHT22;5555;59.622;16.556;2023-03-31T16:48:29;6.00;77.50
11005;DHT22;5555;59.622;16.556;2023-03-31T16:50:57;6.90;77.10
11005;DHT22;5555;59.622;16.556;2023-03-31T16:53:24;6.20;76.20
11005;DHT22;5555;59.622;16.556;2023-03-31T16:55:52;5.00;77.20
11005;DHT22;5555;59.622;16.556;2023-03-31T16:58:18;4.10;79.20
11005;DHT22;5555;59.622;16.556;2023-03-31T17:00:45;3.60;81.60
11005;DHT22;5555;59.622;16.556;2023-03-31T17:03:11;3.40;81.40
11005;DHT22;5555;59.622;16.556;2023-03-31T17:05:49;3.30;82.20
11005;DHT22;5555;59.622;16.556;2023-03-31T17:08:18;2.90;82.40
11005;DHT22;5555;59.622;16.556;2023-03-31T17:10:51;2.90;84.40
11005;DHT22;5555;59.622;16.556;2023-03-31T17:13:17;2.50;84.20
11005;DHT22;5555;59.622;16.556;2023-03-31T17:15:43;2.40;84.80
11005;DHT22;5555;59.622;16.556;2023-03-31T17:18:09;2.40;85.60
11005;DHT22;5555;59.622;16.556;2023-03-31T17:20:34;2.10;85.80
11005;DHT22;5555;59.622;16.556;2023-03-31T17:23:00;2.00;86.40
11005;DHT22;5555;59.622;16.556;2023-03-31T17:25:26;2.00;87.30
11005;DHT22;5555;59.622;16.556;2023-03-31T17:27:52;1.80;87.60
11005;DHT22;5555;59.622;16.556;2023-03-31T17:30:20;1.70;87.40
11005;DHT22;5555;59.622;16.556;2023-03-31T17:32:46;1.60;88.60
11005;DHT22;5555;59.622;16.556;2023-03-31T17:35:12;1.50;89.10
11005;DHT22;5555;59.622;16.556;2023-03-31T17:37:45;1.40;88.90
11005;DHT22;5555;59.622;16.556;2023-03-31T17:40:11;1.30;89.90
11005;DHT22;5555;59.622;16.556;2023-03-31T17:42:37;1.30;90.00
11005;DHT22;5555;59.622;16.556;2023-03-31T17:45:03;1.30;89.80
11005;DHT22;5555;59.622;16.556;2023-03-31T17:47:30;1.10;90.40
11005;DHT22;5555;59.622;16.556;2023-03-31T17:49:57;1.00;90.60
11005;DHT22;5555;59.622;16.556;2023-03-31T17:52:23;0.90;90.70
11005;DHT22;5555;59.622;16.556;2023-03-31T17:54:49;0.80;91.10
11005;DHT22;5555;59.622;16.556;2023-03-31T17:57:15;0.80;91.30
11005;DHT22;5555;59.622;16.556;2023-03-31T17:59:41;0.70;91.00
11005;DHT22;5555;59.622;16.556;2023-03-31T18:02:10;0.70;91.30
11005;DHT22;5555;59.622;16.556;2023-03-31T18:04:37;0.70;91.50
11005;DHT22;5555;59.622;16.556;2023-03-31T18:07:03;0.50;91.70
11005;DHT22;5555;59.622;16.556;2023-03-31T18:09:29;0.50;91.60
11005;DHT22;5555;59.622;16.556;2023-03-31T18:11:54;0.50;91.70
11005;DHT22;5555;59.622;16.556;2023-03-31T18:14:20;0.40;91.90
11005;DHT22;5555;59.622;16.556;2023-03-31T18:16:45;0.40;92.10
11005;DHT22;5555;59.622;16.556;2023-03-31T18:19:11;0.30;92.20
11005;DHT22;5555;59.622;16.556;2023-03-31T18:21:37;0.10;92.60
11005;DHT22;5555;59.622;16.556;2023-03-31T18:24:02;0.00;93.00
11005;DHT22;5555;59.622;16.556;2023-03-31T18:26:28;-0.20;93.30
11005;DHT22;5555;59.622;16.556;2023-03-31T18:28:54;-0.30;93.50
11005;DHT22;5555;59.622;16.556;2023-03-31T18:31:19;-0.30;93.80
11005;DHT22;5555;59.622;16.556;2023-03-31T18:33:46;-0.40;94.10
11005;DHT22;5555;59.622;16.556;2023-03-31T18:36:15;-0.30;93.60
11005;DHT22;5555;59.622;16.556;2023-03-31T18:38:42;-0.40;93.70
11005;DHT22;5555;59.622;16.556;2023-03-31T18:41:08;-0.40;93.90
11005;DHT22;5555;59.622;16.556;2023-03-31T18:43:34;-0.50;93.80
11005;DHT22;5555;59.622;16.556;2023-03-31T18:46:00;-0.40;93.90
11005;DHT22;5555;59.622;16.556;2023-03-31T18:48:26;-0.50;94.30
11005;DHT22;5555;59.622;16.556;2023-03-31T18:50:52;-0.60;94.50
11005;DHT22;5555;59.622;16.556;2023-03-31T18:53:22;-0.60;94.60
11005;DHT22;5555;59.622;16.556;2023-03-31T18:55:56;-0.70;94.80
11005;DHT22;5555;59.622;16.556;2023-03-31T18:58:24;-0.80;94.70